NY Terminal Aviation Weather Discussion (AFD) - Prepared: 753 PM EDT SUN APR 20 2014
HIGH PRESSURE GRADUALLY RETREATS TO THE NORTHEAST THROUGH TONIGHT. 

VFR THROUGH THE TAF PERIOD. MODERATE CONFIDENCE IN WIND FORECAST.
MAY BE BACKING THEM TO THE E A FEW HOURS TOO EARLY THIS EVE. SEA
BREEZE WILL BE LIKELY MONDAY...TIMING COULD BE +/- 1-2 HOURS AT
COASTAL TERMINALS. SPEEDS COULD BE 10-12KT AT KEWR IF SEABREEZE
MAKES IT THERE AFT 19Z. MAY ALSO SEE GUSTS DEVELOP WITH THE
SEABREEZE BUT NOT CONFIDENT SO NOT INCLUDED IN FORECAST.

5 Day General Aviation Outlook:

.OUTLOOK FOR 00Z MONDAY THROUGH FRIDAY...
.MON AFTN-TUE MORNING...VFR.
.TUE AFTN-WED MORNING...SHRA BECOMING LIKELY...WITH MVFR OR LOWER
POSSIBLE. NW-N WINDS G20-25KT POSSIBLE.
.WED AFTN...MOST LIKELY VFR...WITH LOW CHANCE MVFR. NW-N WIND
G20-25KT POSSIBLE.
.WED NIGHT-THU NIGHT...VFR. NW-N WIND G20-25 KT POSSIBLE THU AFTN.
.FRI...MVFR OR LOWER POSSIBLE IN AFTN WITH A CHANCE OF SHOWERS.


NY Metro Terminal Aviation Weather Summary: (Explanation of Color Coding)
NOTE: All Wind Directions are TRUE (add 13 degrees for magnetic directions). Tail and Crosswind Calculations do account for the magnetic deviation of runways.

Click on the Airport Below for Specific Information at that Terminal

TAF Overview JFK TAF LGA TAF EWR TAF TEB TAF HPN TAF ISP TAF

Jump to AirSpace Impacts Section Condensed "lite" version of SPA page
**************************************************************************************
KJFK Terminal Weather: (Wind Directions Are True, Except Where Noted, ADD 13 degrees for Magnetic)

5MIN KJFK 210150Z 09003KT 10SM FEW270 07/M03 A3039 -410
      51 -1400 100/03 RMK AO2 SLP290 T00671028 $
5MIN KJFK 210145Z 00000KT 10SM SCT260 07/M02 A3039 -410
      53 -1400 000/00 RMK AO2 SLP291 T00671022 $
********************************************
****        MAGNETIC DIRECTIONS         ****
********************************************
KJFK 04/21/2014 02:00:59 GMT 080 04 KT
KJFK 04/21/2014 01:58:59 GMT 080 03 KT
KJFK 04/21/2014 01:56:59 GMT 080 04 KT
KJFK 04/21/2014 01:54:59 GMT 080 03 KT
KJFK 04/21/2014 01:52:59 GMT 090 03 KT
KJFK 04/21/2014 01:51:00 GMT 090 03 KT
KJFK 04/21/2014 01:49:00 GMT 090 04 KT
KJFK 04/21/2014 01:47:00 GMT 090 03 KT
KJFK 04/21/2014 01:45:00 GMT 100 04 KT
KJFK 04/21/2014 01:43:00 GMT 100 04 KT
SAUS70 KJFK 210200 RRJ
METAR KJFK 210151Z 08003KT 10SM FEW270 07/M03 A3039 RMK AO2 SLP290
     T00671028 $
FTNA35 KJFK 202346 RRH
KJFK 202339Z 2100/2206 11009KT P6SM SCT250
     FM210300 07006KT P6SM FEW250
     FM210600 03006KT P6SM SKC
     FM211600 VRB05KT P6SM SKC
     FM211800 18013KT P6SM FEW250
     FM220200 20007KT P6SM FEW250
KJFK Forecaster Comments Not Available at This Time
jfk

JFK Hourly Forecast Temperature (C)

JFK Hourly TMPS
**************************************************************************************
KLGA Terminal Weather: (Wind Directions Are True, Except Where Noted, ADD 13 degrees for Magnetic)

5MIN KLGA 210150Z 09004KT 10SM FEW250 09/M04 A3038 -390
      40 -1100 100/04 RMK AO2 SLP286 T00891039
5MIN KLGA 210145Z 10005KT 10SM FEW250 09/M04 A3038 -390
      40 -1100 110/05 RMK AO2 SLP287 T00891039
********************************************
****        MAGNETIC DIRECTIONS         ****
********************************************
KLGA 04/21/2014 02:01:57 GMT 150 07 KT
KLGA 04/21/2014 01:59:58 GMT 140 08 KT
KLGA 04/21/2014 01:57:58 GMT 130 06 KT
KLGA 04/21/2014 01:55:57 GMT 130 04 KT
KLGA 04/21/2014 01:53:57 GMT 110 05 KT
KLGA 04/21/2014 01:51:57 GMT 100 05 KT
KLGA 04/21/2014 01:49:57 GMT 110 05 KT
KLGA 04/21/2014 01:47:57 GMT 120 05 KT
KLGA 04/21/2014 01:45:57 GMT 130 05 KT
KLGA 04/21/2014 01:43:56 GMT 130 05 KT
SAUS70 KLGA 210200
METAR KLGA 210151Z 09004KT 10SM FEW250 09/M04 A3038 RMK AO2 SLP286
     T00891039
FTUS80 KLGA 202342 RRA
KLGA 202339Z 2100/2124 14008KT P6SM FEW250
     FM210500 05006KT P6SM SKC
     FM211900 14007KT P6SM FEW250
     FM212100 17011KT P6SM FEW250
KLGA Forecaster Comments Not Available at This Time
lga


**************************************************************************************

KEWR Terminal Weather: (Wind Directions Are True, Except Where Noted, ADD 13 degrees for Magnetic)

5MIN KEWR 210150Z 00000KT 10SM SCT250 07/M02 A3038 -400
      53 -1300 000/00 RMK AO2 SLP286 T00721017 $
5MIN KEWR 210145Z 00000KT 10SM SCT250 07/M02 A3039 -400
      53 -1400 000/00 RMK AO2 SLP288 T00721017 $
********************************************
****        MAGNETIC DIRECTIONS         ****
********************************************
KEWR 04/21/2014 02:01:12 GMT CAL  KT
KEWR 04/21/2014 01:59:33 GMT CAL  KT
KEWR 04/21/2014 01:57:12 GMT CAL  KT
KEWR 04/21/2014 01:55:12 GMT CAL  KT
KEWR 04/21/2014 01:53:34 GMT 150 04 KT
KEWR 04/21/2014 01:51:12 GMT CAL  KT
KEWR 04/21/2014 01:49:12 GMT CAL  KT
KEWR 04/21/2014 01:47:34 GMT CAL  KT
KEWR 04/21/2014 01:45:12 GMT 160 03 KT
KEWR 04/21/2014 01:43:12 GMT CAL  KT
SAUS70 KEWR 210200
METAR KEWR 210151Z 00000KT 10SM SCT250 07/M02 A3038 RMK AO2 SLP286
     T00721017 $
FTUS80 KEWR 202342
KEWR 202339Z 2100/2206 14006KT P6SM FEW250
     FM210400 09005KT P6SM FEW250
     FM210600 04005KT P6SM SKC
     FM211500 10005KT P6SM SKC
     FM211800 16008KT P6SM FEW250
     FM220200 21005KT P6SM FEW250
KEWR Forecaster Comments Not Available at This Time
ewr
Afternoon EWR Haze Potential Forecast: KEWR Haze Forecast Not Available at This Time
IS NOT AVAILABLE AT THIS TIME


******************************************************************************

KTEB Terminal Weather:
SAUS80 KTEB 210200
METAR KTEB 210151Z 21003KT 10SM CLR 08/M02 A3037 RMK AO2 SLP284
     T00781022
FTUS80 KTEB 202342 RRC
KTEB 202339Z 2100/2124 17006KT P6SM FEW250
     FM210400 VRB02KT P6SM SKC
     FM211500 13005KT P6SM SKC
     FM211800 17007KT P6SM FEW250
KTEB Forecaster Comments Not Available at This Time
teb

 


**************************************************************************************

KHPN Terminal Weather:
SAUS70 KHPN 210200
METAR KHPN 210156Z 00000KT 10SM CLR 06/01 A3036 RMK AO2 SLP284
     T00610006
FTUS80 KHPN 202342 RRA
KHPN 202339Z 2100/2124 11005KT P6SM SKC
     FM210300 VRB02KT P6SM SKC
     FM211500 13005KT P6SM SKC
     FM211800 17007KT P6SM SKC AMD NOT SKED
KHPN Forecaster Comments Not Available at This Time
HPN


******************************************************************************

KISP Terminal Weather:
SAUS70 KISP 210200
METAR KISP 210156Z 08003KT 10SM SCT260 06/M04 A3036 RMK AO2 SLP283
     T00561039
FTUS80 KISP 202342 RRA
KISP 202339Z 2100/2124 11008KT P6SM SCT250
     FM210400 07004KT P6SM SKC
     FM211500 10007KT P6SM SKC
     FM211800 15007KT P6SM FEW250
     FM212000 20010KT P6SM FEW250
KISP Forecaster Comments Not Available at This Time
ISP

 


ZNY SWAP Season Information

(ZNY SWAP STATEMENT) (Click for PDF File) (ZNY BRIEFING) (Click for PDF File)

*******************************************************
***        NY AIR ROUTE TRAFFIC CONTROL CENTER      ***
***                DAILY SWAP STATEMENT             ***
*******************************************************
NY AIR ROUTE TRAFFIC CONTROL CENTER
DAILY SWAP STATEMENT
APRIL 20, 2014
SWAP IS NOT EXPECTED.
ADDT'L INFO:
AZEZU-PAEPR-HANRI(L453-M201): SCTD TS PSBL. 
DITCH: NO IMPACTS.
EAST GATES: NO IMPACTS. 
TOMORROW MORNINGS SWAP OUTLOOK: SWAP IS NOT EXPECTED.
$$
KS






N90 AirSpace Impacts

N90 ZNY Gate TSTM Forecast    SWAP Day One Forecast

SWAP Day One Forecast    SWAP Day Two Outlook

National Collaborative Convective Forecast Product (CCFP) Forecasts (Mar-Oct)


Vertical Wind Profile
Untitled Document